Search for airport 
image banner adimage banner adimage banner ad
image banner ad

CN64 - Desert Center

Located in Desert Center, Canada

ICAO - CN64, IATA -

Data provided by Airmate  

General information

Coordinates: N33°44'52" W115°19'31"
Elevation is 559 feet MSL.
Magnetic variation is 13° East
View others Airports in California

Operational data

Special qualification required
Current time UTC:
Current local time:
Weather at : KBLH - Blythe ( 58 km )
METAR: KBLH 240952Z AUTO 35005KT 10SM CLR 24/21 A2986 RMK AO2 SLP103 T02440211
TAF: KBLH 240520Z 2406/2506 02005KT P6SM FEW110 FM241200 14004KT P6SM SKC FM241900 18007KT P6SM SKC FM242300 23012KT P6SM SKC FM250500 25008KT P6SM SKC
View NOTAMs / SUP AIP / TFR affecting this airport [VIEW]
Communications frequencies: [VIEW]

Runways:

RWY identifierQFULength (ft)Width (ft)SurfaceLDA (ft)
05420050ASPH
23420050ASPH

Airport contact information

Address: Desert Center Canada

Satellite view of CN64